Snohomish County (Paine Field) Airport
KPAE : now visible

Airfield :











YOU CAN JOIN US ON...

 
LOGIN :

Register | Disclaimer

   EN    FR    IT 

 









Legend :    VFR   Marginal VFR   IFR   Intensive IFR   Very Intensive IFR
Visi :
Ceiling :
>= 8 km
>= 3000ft
5 to 8 km
1000 to 3000 ft
1500m to 5 km
500 to 1000 ft
800 to 1500m
200 to 500 ft
< 800m
< 200 ft
Symbols :   Thunderstorms  Fog  Heavy snow  Heavy precipitations  Wind > 20 kt






- Airport Elevation : 606 ft
- IATA code : PAE


KPAE - Snohomish County (Paine Field)

CURRENT METAR :
  • 060253Z 00000KT 10SM CLR 14/11 A3018 RMK AO2 SLP220 T01390111 53003

EXPIRED METARs :
  • 060153Z 26004KT 10SM CLR 15/12 A3018 RMK AO2 SLP218 T01500117
  • 060053Z 35005KT 10SM CLR 18/12 A3017 RMK AO2 SLP216 T01780117

TAF KPAE
Valid from the 06 at 00:00 until the 07 at 00:00 UTC


052331Z 0600/0624 02005KT P6SM FEW010 SCT200
FM060300 00000KT P6SM BKN250
FM060800 VRB03KT 6SM BCFG BKN015
FM061300 00000KT 2SM BR OVC005
FM061800 35003KT P6SM SCT250
KZSE FIR / North America



MET'MAP, your aeronautical weather chart ! - Copyright ORBIFLY December 2007 - Disclaimer

ORBIFLY MET'MAP TEAM :

Programming & Development : Alexandra Zaïnal
Original concept : Baudouin d'Aumeries
Technical & hardware support : Manuel Goepfert
Assistance : Marc-Olivier Méhu




SOURCES & CREDITS :

   NOAA       Earth
Advisory